sensor_id;sensor_type;location;lat;lon;timestamp;P1;durP1;ratioP1;P2;durP2;ratioP2
14066;SDS011;7108;42.684;23.350;2023-03-01T00:02:02;203.50;;;76.63;;
14066;SDS011;7108;42.684;23.350;2023-03-01T00:04:29;204.77;;;78.03;;
14066;SDS011;7108;42.684;23.350;2023-03-01T00:06:55;225.07;;;77.00;;
14066;SDS011;7108;42.684;23.350;2023-03-01T00:09:21;222.70;;;75.20;;
14066;SDS011;7108;42.684;23.350;2023-03-01T00:11:47;220.30;;;75.27;;
14066;SDS011;7108;42.684;23.350;2023-03-01T00:14:14;229.55;;;73.95;;
14066;SDS011;7108;42.684;23.350;2023-03-01T00:16:42;217.23;;;73.75;;
14066;SDS011;7108;42.684;23.350;2023-03-01T00:19:15;204.95;;;70.28;;
14066;SDS011;7108;42.684;23.350;2023-03-01T00:21:43;231.18;;;75.65;;
14066;SDS011;7108;42.684;23.350;2023-03-01T00:24:08;198.13;;;69.73;;
14066;SDS011;7108;42.684;23.350;2023-03-01T00:26:35;201.48;;;69.63;;
14066;SDS011;7108;42.684;23.350;2023-03-01T00:29:01;198.73;;;71.15;;
14066;SDS011;7108;42.684;23.350;2023-03-01T00:31:31;199.20;;;70.32;;
14066;SDS011;7108;42.684;23.350;2023-03-01T00:33:58;201.63;;;71.32;;
14066;SDS011;7108;42.684;23.350;2023-03-01T00:36:27;221.52;;;73.38;;
14066;SDS011;7108;42.684;23.350;2023-03-01T00:38:55;227.30;;;73.93;;
14066;SDS011;7108;42.684;23.350;2023-03-01T00:41:21;228.07;;;73.47;;
14066;SDS011;7108;42.684;23.350;2023-03-01T00:43:48;223.30;;;72.53;;
14066;SDS011;7108;42.684;23.350;2023-03-01T00:46:16;226.43;;;73.55;;
14066;SDS011;7108;42.684;23.350;2023-03-01T00:48:42;230.05;;;73.97;;
14066;SDS011;7108;42.684;23.350;2023-03-01T00:51:09;191.17;;;69.23;;
14066;SDS011;7108;42.684;23.350;2023-03-01T00:53:45;221.55;;;72.18;;
14066;SDS011;7108;42.684;23.350;2023-03-01T00:56:12;212.15;;;71.47;;
14066;SDS011;7108;42.684;23.350;2023-03-01T00:58:39;199.20;;;72.63;;
14066;SDS011;7108;42.684;23.350;2023-03-01T01:01:12;208.90;;;71.07;;
14066;SDS011;7108;42.684;23.350;2023-03-01T01:06:19;208.73;;;73.03;;
14066;SDS011;7108;42.684;23.350;2023-03-01T01:08:47;220.00;;;75.38;;
14066;SDS011;7108;42.684;23.350;2023-03-01T01:11:14;224.20;;;73.65;;
14066;SDS011;7108;42.684;23.350;2023-03-01T01:13:40;194.68;;;71.97;;
14066;SDS011;7108;42.684;23.350;2023-03-01T01:16:06;195.75;;;69.20;;
14066;SDS011;7108;42.684;23.350;2023-03-01T01:18:32;192.48;;;68.95;;
14066;SDS011;7108;42.684;23.350;2023-03-01T01:21:02;198.17;;;71.63;;
14066;SDS011;7108;42.684;23.350;2023-03-01T01:23:30;199.48;;;70.32;;
14066;SDS011;7108;42.684;23.350;2023-03-01T01:25:55;224.00;;;73.83;;
14066;SDS011;7108;42.684;23.350;2023-03-01T01:28:23;210.63;;;72.57;;
14066;SDS011;7108;42.684;23.350;2023-03-01T01:30:49;203.07;;;70.75;;
14066;SDS011;7108;42.684;23.350;2023-03-01T01:33:14;205.23;;;72.40;;
14066;SDS011;7108;42.684;23.350;2023-03-01T01:35:40;200.03;;;69.57;;
14066;SDS011;7108;42.684;23.350;2023-03-01T01:38:05;209.97;;;74.03;;
14066;SDS011;7108;42.684;23.350;2023-03-01T01:40:31;193.47;;;69.30;;
14066;SDS011;7108;42.684;23.350;2023-03-01T01:42:56;221.57;;;71.07;;
14066;SDS011;7108;42.684;23.350;2023-03-01T01:45:32;225.70;;;73.00;;
14066;SDS011;7108;42.684;23.350;2023-03-01T01:48:03;194.32;;;68.00;;
14066;SDS011;7108;42.684;23.350;2023-03-01T01:50:31;201.93;;;69.65;;
14066;SDS011;7108;42.684;23.350;2023-03-01T01:53:10;202.18;;;71.63;;
14066;SDS011;7108;42.684;23.350;2023-03-01T01:55:40;214.77;;;71.72;;
14066;SDS011;7108;42.684;23.350;2023-03-01T01:58:09;199.10;;;70.70;;
14066;SDS011;7108;42.684;23.350;2023-03-01T02:00:36;196.82;;;68.80;;
14066;SDS011;7108;42.684;23.350;2023-03-01T02:03:03;193.50;;;69.43;;
14066;SDS011;7108;42.684;23.350;2023-03-01T02:08:16;220.02;;;71.85;;
14066;SDS011;7108;42.684;23.350;2023-03-01T02:10:45;233.90;;;72.53;;
14066;SDS011;7108;42.684;23.350;2023-03-01T02:13:11;230.63;;;73.70;;
14066;SDS011;7108;42.684;23.350;2023-03-01T02:15:38;195.52;;;68.78;;
14066;SDS011;7108;42.684;23.350;2023-03-01T02:18:05;201.32;;;70.82;;
14066;SDS011;7108;42.684;23.350;2023-03-01T02:23:17;203.27;;;69.43;;
14066;SDS011;7108;42.684;23.350;2023-03-01T02:25:51;203.02;;;69.93;;
14066;SDS011;7108;42.684;23.350;2023-03-01T02:28:28;227.95;;;72.18;;
14066;SDS011;7108;42.684;23.350;2023-03-01T02:31:05;188.15;;;69.07;;
14066;SDS011;7108;42.684;23.350;2023-03-01T02:33:51;223.30;;;72.65;;
14066;SDS011;7108;42.684;23.350;2023-03-01T02:36:20;216.50;;;71.70;;
14066;SDS011;7108;42.684;23.350;2023-03-01T02:38:50;215.70;;;71.40;;
14066;SDS011;7108;42.684;23.350;2023-03-01T02:41:19;233.25;;;74.60;;
14066;SDS011;7108;42.684;23.350;2023-03-01T02:43:46;215.77;;;72.03;;
14066;SDS011;7108;42.684;23.350;2023-03-01T02:46:22;197.10;;;69.85;;
14066;SDS011;7108;42.684;23.350;2023-03-01T02:48:49;219.90;;;72.47;;
14066;SDS011;7108;42.684;23.350;2023-03-01T02:56:41;186.88;;;68.63;;
14066;SDS011;7108;42.684;23.350;2023-03-01T02:59:08;186.13;;;67.63;;
14066;SDS011;7108;42.684;23.350;2023-03-01T03:01:34;191.95;;;69.00;;
14066;SDS011;7108;42.684;23.350;2023-03-01T03:04:07;184.57;;;67.45;;
14066;SDS011;7108;42.684;23.350;2023-03-01T03:06:35;182.35;;;67.72;;
14066;SDS011;7108;42.684;23.350;2023-03-01T03:09:01;193.00;;;68.63;;
14066;SDS011;7108;42.684;23.350;2023-03-01T03:11:29;186.23;;;67.43;;
14066;SDS011;7108;42.684;23.350;2023-03-01T03:13:55;188.57;;;68.68;;
14066;SDS011;7108;42.684;23.350;2023-03-01T03:16:21;183.77;;;68.80;;
14066;SDS011;7108;42.684;23.350;2023-03-01T03:18:47;186.35;;;68.97;;
14066;SDS011;7108;42.684;23.350;2023-03-01T03:21:13;190.65;;;68.03;;
14066;SDS011;7108;42.684;23.350;2023-03-01T03:23:39;188.40;;;68.43;;
14066;SDS011;7108;42.684;23.350;2023-03-01T03:26:05;190.93;;;67.87;;
14066;SDS011;7108;42.684;23.350;2023-03-01T03:28:31;184.13;;;66.97;;
14066;SDS011;7108;42.684;23.350;2023-03-01T03:30:57;196.43;;;67.10;;
14066;SDS011;7108;42.684;23.350;2023-03-01T03:33:23;189.47;;;65.83;;
14066;SDS011;7108;42.684;23.350;2023-03-01T03:35:49;204.80;;;70.63;;
14066;SDS011;7108;42.684;23.350;2023-03-01T03:38:16;186.02;;;68.82;;
14066;SDS011;7108;42.684;23.350;2023-03-01T03:40:45;189.45;;;67.63;;
14066;SDS011;7108;42.684;23.350;2023-03-01T03:43:20;184.40;;;68.53;;
14066;SDS011;7108;42.684;23.350;2023-03-01T03:45:47;182.57;;;66.55;;
14066;SDS011;7108;42.684;23.350;2023-03-01T03:48:14;196.52;;;67.63;;
14066;SDS011;7108;42.684;23.350;2023-03-01T03:50:41;182.93;;;67.28;;
14066;SDS011;7108;42.684;23.350;2023-03-01T03:53:11;187.50;;;68.82;;
14066;SDS011;7108;42.684;23.350;2023-03-01T03:55:37;185.33;;;67.93;;
14066;SDS011;7108;42.684;23.350;2023-03-01T03:58:07;188.32;;;68.93;;
14066;SDS011;7108;42.684;23.350;2023-03-01T04:00:38;189.35;;;66.60;;
14066;SDS011;7108;42.684;23.350;2023-03-01T04:03:07;190.88;;;70.95;;
14066;SDS011;7108;42.684;23.350;2023-03-01T04:05:36;185.00;;;68.40;;
14066;SDS011;7108;42.684;23.350;2023-03-01T04:08:02;185.65;;;69.20;;
14066;SDS011;7108;42.684;23.350;2023-03-01T04:10:35;187.82;;;70.43;;
14066;SDS011;7108;42.684;23.350;2023-03-01T04:13:02;185.50;;;68.47;;
14066;SDS011;7108;42.684;23.350;2023-03-01T04:15:29;191.13;;;68.90;;
14066;SDS011;7108;42.684;23.350;2023-03-01T04:17:56;195.10;;;69.47;;
14066;SDS011;7108;42.684;23.350;2023-03-01T04:20:24;182.60;;;66.50;;
14066;SDS011;7108;42.684;23.350;2023-03-01T04:22:58;192.00;;;68.68;;
14066;SDS011;7108;42.684;23.350;2023-03-01T04:25:41;194.35;;;65.95;;
14066;SDS011;7108;42.684;23.350;2023-03-01T04:28:11;183.18;;;68.00;;
14066;SDS011;7108;42.684;23.350;2023-03-01T04:30:37;189.52;;;68.35;;
14066;SDS011;7108;42.684;23.350;2023-03-01T04:33:07;187.00;;;65.25;;
14066;SDS011;7108;42.684;23.350;2023-03-01T04:35:37;183.45;;;66.53;;
14066;SDS011;7108;42.684;23.350;2023-03-01T04:38:04;188.45;;;66.80;;
14066;SDS011;7108;42.684;23.350;2023-03-01T04:40:30;192.32;;;68.10;;
14066;SDS011;7108;42.684;23.350;2023-03-01T04:42:56;183.80;;;67.53;;
14066;SDS011;7108;42.684;23.350;2023-03-01T04:45:22;190.47;;;68.03;;
14066;SDS011;7108;42.684;23.350;2023-03-01T04:47:48;184.75;;;68.30;;
14066;SDS011;7108;42.684;23.350;2023-03-01T04:50:15;185.43;;;68.47;;
14066;SDS011;7108;42.684;23.350;2023-03-01T04:52:45;184.60;;;69.15;;
14066;SDS011;7108;42.684;23.350;2023-03-01T04:55:12;187.43;;;69.95;;
14066;SDS011;7108;42.684;23.350;2023-03-01T04:57:38;181.30;;;66.57;;
14066;SDS011;7108;42.684;23.350;2023-03-01T05:00:04;196.02;;;69.57;;
14066;SDS011;7108;42.684;23.350;2023-03-01T05:02:47;197.45;;;71.03;;
14066;SDS011;7108;42.684;23.350;2023-03-01T05:05:21;187.50;;;68.72;;
14066;SDS011;7108;42.684;23.350;2023-03-01T05:07:52;198.63;;;69.93;;
14066;SDS011;7108;42.684;23.350;2023-03-01T05:10:23;196.93;;;69.38;;
14066;SDS011;7108;42.684;23.350;2023-03-01T05:12:54;188.85;;;67.82;;
14066;SDS011;7108;42.684;23.350;2023-03-01T05:15:22;188.43;;;68.07;;
14066;SDS011;7108;42.684;23.350;2023-03-01T05:17:51;189.27;;;67.60;;
14066;SDS011;7108;42.684;23.350;2023-03-01T05:20:17;182.10;;;68.22;;
14066;SDS011;7108;42.684;23.350;2023-03-01T05:22:48;185.20;;;69.85;;
14066;SDS011;7108;42.684;23.350;2023-03-01T05:25:14;208.15;;;73.07;;
14066;SDS011;7108;42.684;23.350;2023-03-01T05:27:39;189.40;;;67.73;;
14066;SDS011;7108;42.684;23.350;2023-03-01T05:30:05;188.07;;;67.93;;
14066;SDS011;7108;42.684;23.350;2023-03-01T05:32:42;212.52;;;70.22;;
14066;SDS011;7108;42.684;23.350;2023-03-01T05:35:23;210.32;;;70.85;;
14066;SDS011;7108;42.684;23.350;2023-03-01T05:37:54;201.93;;;74.45;;
14066;SDS011;7108;42.684;23.350;2023-03-01T05:40:23;216.52;;;71.63;;
14066;SDS011;7108;42.684;23.350;2023-03-01T05:42:55;194.57;;;69.72;;
14066;SDS011;7108;42.684;23.350;2023-03-01T05:45:22;186.02;;;67.95;;
14066;SDS011;7108;42.684;23.350;2023-03-01T05:47:49;185.05;;;66.82;;
14066;SDS011;7108;42.684;23.350;2023-03-01T05:52:45;203.63;;;70.03;;
14066;SDS011;7108;42.684;23.350;2023-03-01T05:55:21;184.75;;;67.50;;
14066;SDS011;7108;42.684;23.350;2023-03-01T05:57:47;185.17;;;67.37;;
14066;SDS011;7108;42.684;23.350;2023-03-01T06:00:15;196.38;;;68.75;;
14066;SDS011;7108;42.684;23.350;2023-03-01T06:02:42;194.32;;;68.60;;
14066;SDS011;7108;42.684;23.350;2023-03-01T06:05:08;183.48;;;67.15;;
14066;SDS011;7108;42.684;23.350;2023-03-01T06:07:35;192.27;;;68.50;;
14066;SDS011;7108;42.684;23.350;2023-03-01T06:10:01;200.52;;;69.22;;
14066;SDS011;7108;42.684;23.350;2023-03-01T06:12:34;188.48;;;67.60;;
14066;SDS011;7108;42.684;23.350;2023-03-01T06:15:10;189.77;;;66.38;;
14066;SDS011;7108;42.684;23.350;2023-03-01T06:17:37;183.38;;;67.75;;
14066;SDS011;7108;42.684;23.350;2023-03-01T06:20:06;183.18;;;65.75;;
14066;SDS011;7108;42.684;23.350;2023-03-01T06:22:46;191.95;;;67.13;;
14066;SDS011;7108;42.684;23.350;2023-03-01T06:25:15;184.88;;;65.05;;
14066;SDS011;7108;42.684;23.350;2023-03-01T06:27:45;197.57;;;68.45;;
14066;SDS011;7108;42.684;23.350;2023-03-01T06:30:12;182.38;;;65.43;;
14066;SDS011;7108;42.684;23.350;2023-03-01T06:32:43;232.20;;;75.57;;
14066;SDS011;7108;42.684;23.350;2023-03-01T06:35:11;186.00;;;69.82;;
14066;SDS011;7108;42.684;23.350;2023-03-01T06:37:39;193.35;;;68.05;;
14066;SDS011;7108;42.684;23.350;2023-03-01T06:40:06;185.50;;;67.28;;
14066;SDS011;7108;42.684;23.350;2023-03-01T06:42:36;186.98;;;66.25;;
14066;SDS011;7108;42.684;23.350;2023-03-01T06:45:03;187.93;;;66.70;;
14066;SDS011;7108;42.684;23.350;2023-03-01T06:47:29;201.27;;;68.65;;
14066;SDS011;7108;42.684;23.350;2023-03-01T06:49:55;194.80;;;68.07;;
14066;SDS011;7108;42.684;23.350;2023-03-01T06:52:20;181.40;;;67.33;;
14066;SDS011;7108;42.684;23.350;2023-03-01T06:54:46;188.20;;;67.90;;
14066;SDS011;7108;42.684;23.350;2023-03-01T06:57:14;185.25;;;65.68;;
14066;SDS011;7108;42.684;23.350;2023-03-01T06:59:42;190.10;;;67.60;;
14066;SDS011;7108;42.684;23.350;2023-03-01T07:02:16;181.73;;;66.25;;
14066;SDS011;7108;42.684;23.350;2023-03-01T07:04:43;195.63;;;66.40;;
14066;SDS011;7108;42.684;23.350;2023-03-01T07:07:08;180.07;;;65.60;;
14066;SDS011;7108;42.684;23.350;2023-03-01T07:09:34;183.73;;;66.70;;
14066;SDS011;7108;42.684;23.350;2023-03-01T07:12:00;182.43;;;65.20;;
14066;SDS011;7108;42.684;23.350;2023-03-01T07:14:28;194.90;;;69.80;;
14066;SDS011;7108;42.684;23.350;2023-03-01T07:16:54;185.50;;;67.00;;
14066;SDS011;7108;42.684;23.350;2023-03-01T07:19:20;181.17;;;66.93;;
14066;SDS011;7108;42.684;23.350;2023-03-01T07:21:47;188.48;;;66.70;;
14066;SDS011;7108;42.684;23.350;2023-03-01T07:24:12;183.83;;;65.30;;
14066;SDS011;7108;42.684;23.350;2023-03-01T07:26:38;179.27;;;65.50;;
14066;SDS011;7108;42.684;23.350;2023-03-01T07:29:04;186.53;;;68.47;;
14066;SDS011;7108;42.684;23.350;2023-03-01T07:31:31;188.07;;;68.40;;
14066;SDS011;7108;42.684;23.350;2023-03-01T07:33:59;251.73;;;74.68;;
14066;SDS011;7108;42.684;23.350;2023-03-01T07:36:36;259.10;;;74.50;;
14066;SDS011;7108;42.684;23.350;2023-03-01T07:39:02;260.67;;;74.80;;
14066;SDS011;7108;42.684;23.350;2023-03-01T07:41:29;254.77;;;75.28;;
14066;SDS011;7108;42.684;23.350;2023-03-01T07:43:57;239.63;;;72.95;;
14066;SDS011;7108;42.684;23.350;2023-03-01T07:46:22;224.33;;;69.83;;
14066;SDS011;7108;42.684;23.350;2023-03-01T07:48:48;254.57;;;74.13;;
14066;SDS011;7108;42.684;23.350;2023-03-01T07:51:14;255.63;;;73.87;;
14066;SDS011;7108;42.684;23.350;2023-03-01T07:53:39;245.83;;;72.50;;
14066;SDS011;7108;42.684;23.350;2023-03-01T07:56:09;264.53;;;74.40;;
14066;SDS011;7108;42.684;23.350;2023-03-01T07:58:40;247.35;;;79.10;;
14066;SDS011;7108;42.684;23.350;2023-03-01T08:01:11;255.25;;;75.38;;
14066;SDS011;7108;42.684;23.350;2023-03-01T08:03:40;244.60;;;76.43;;
14066;SDS011;7108;42.684;23.350;2023-03-01T08:06:09;255.40;;;79.30;;
14066;SDS011;7108;42.684;23.350;2023-03-01T08:08:36;259.27;;;80.70;;
14066;SDS011;7108;42.684;23.350;2023-03-01T08:11:06;267.30;;;81.95;;
14066;SDS011;7108;42.684;23.350;2023-03-01T08:13:32;256.50;;;77.78;;
14066;SDS011;7108;42.684;23.350;2023-03-01T08:16:05;240.02;;;76.32;;
14066;SDS011;7108;42.684;23.350;2023-03-01T08:18:33;254.25;;;79.45;;
14066;SDS011;7108;42.684;23.350;2023-03-01T08:21:09;231.27;;;78.67;;
14066;SDS011;7108;42.684;23.350;2023-03-01T08:23:40;249.20;;;83.47;;
14066;SDS011;7108;42.684;23.350;2023-03-01T08:26:13;255.45;;;77.97;;
14066;SDS011;7108;42.684;23.350;2023-03-01T08:28:44;217.57;;;73.85;;
14066;SDS011;7108;42.684;23.350;2023-03-01T08:31:17;264.95;;;79.65;;
14066;SDS011;7108;42.684;23.350;2023-03-01T08:33:52;259.92;;;80.57;;
14066;SDS011;7108;42.684;23.350;2023-03-01T08:36:23;279.02;;;79.07;;
14066;SDS011;7108;42.684;23.350;2023-03-01T08:38:51;236.48;;;72.40;;
14066;SDS011;7108;42.684;23.350;2023-03-01T08:41:17;257.90;;;77.97;;
14066;SDS011;7108;42.684;23.350;2023-03-01T08:43:43;260.10;;;77.70;;
14066;SDS011;7108;42.684;23.350;2023-03-01T08:46:08;241.90;;;73.63;;
14066;SDS011;7108;42.684;23.350;2023-03-01T08:48:34;242.77;;;73.70;;
14066;SDS011;7108;42.684;23.350;2023-03-01T08:53:35;230.45;;;73.32;;
14066;SDS011;7108;42.684;23.350;2023-03-01T08:56:01;223.90;;;73.50;;
14066;SDS011;7108;42.684;23.350;2023-03-01T08:58:27;228.73;;;72.90;;
14066;SDS011;7108;42.684;23.350;2023-03-01T09:00:53;237.75;;;73.18;;
14066;SDS011;7108;42.684;23.350;2023-03-01T09:03:19;239.17;;;75.73;;
14066;SDS011;7108;42.684;23.350;2023-03-01T09:05:44;260.50;;;79.50;;
14066;SDS011;7108;42.684;23.350;2023-03-01T09:08:11;226.68;;;76.40;;
14066;SDS011;7108;42.684;23.350;2023-03-01T09:10:39;254.47;;;79.33;;
14066;SDS011;7108;42.684;23.350;2023-03-01T09:13:05;247.40;;;80.22;;
14066;SDS011;7108;42.684;23.350;2023-03-01T09:15:30;252.60;;;79.37;;
14066;SDS011;7108;42.684;23.350;2023-03-01T09:17:56;261.20;;;77.10;;
14066;SDS011;7108;42.684;23.350;2023-03-01T09:20:21;248.63;;;76.17;;
14066;SDS011;7108;42.684;23.350;2023-03-01T09:22:47;225.63;;;72.77;;
14066;SDS011;7108;42.684;23.350;2023-03-01T09:25:12;257.27;;;75.87;;
14066;SDS011;7108;42.684;23.350;2023-03-01T09:27:38;265.33;;;78.43;;
14066;SDS011;7108;42.684;23.350;2023-03-01T09:30:03;252.97;;;75.17;;
14066;SDS011;7108;42.684;23.350;2023-03-01T09:32:30;250.80;;;76.40;;
14066;SDS011;7108;42.684;23.350;2023-03-01T09:34:56;268.27;;;81.90;;
14066;SDS011;7108;42.684;23.350;2023-03-01T09:37:34;257.38;;;78.93;;
14066;SDS011;7108;42.684;23.350;2023-03-01T09:40:01;227.93;;;75.30;;
14066;SDS011;7108;42.684;23.350;2023-03-01T09:42:28;221.95;;;74.40;;
14066;SDS011;7108;42.684;23.350;2023-03-01T09:45:04;264.17;;;81.65;;
14066;SDS011;7108;42.684;23.350;2023-03-01T09:47:35;263.05;;;80.00;;
14066;SDS011;7108;42.684;23.350;2023-03-01T09:50:15;260.67;;;79.15;;
14066;SDS011;7108;42.684;23.350;2023-03-01T09:53:05;279.90;;;81.43;;
14066;SDS011;7108;42.684;23.350;2023-03-01T10:00:46;277.75;;;81.53;;
14066;SDS011;7108;42.684;23.350;2023-03-01T10:03:28;259.60;;;80.18;;
14066;SDS011;7108;42.684;23.350;2023-03-01T10:06:04;244.85;;;78.57;;
14066;SDS011;7108;42.684;23.350;2023-03-01T10:11:41;264.80;;;77.13;;
14066;SDS011;7108;42.684;23.350;2023-03-01T10:17:03;259.90;;;76.10;;
14066;SDS011;7108;42.684;23.350;2023-03-01T10:19:42;264.30;;;77.95;;
14066;SDS011;7108;42.684;23.350;2023-03-01T10:24:40;216.00;;;71.13;;
14066;SDS011;7108;42.684;23.350;2023-03-01T10:27:24;231.80;;;74.17;;
14066;SDS011;7108;42.684;23.350;2023-03-01T10:32:36;261.17;;;80.13;;
14066;SDS011;7108;42.684;23.350;2023-03-01T10:38:10;267.45;;;78.15;;
14066;SDS011;7108;42.684;23.350;2023-03-01T10:40:58;227.30;;;73.57;;
14066;SDS011;7108;42.684;23.350;2023-03-01T10:43:42;242.90;;;77.60;;
14066;SDS011;7108;42.684;23.350;2023-03-01T10:49:16;279.13;;;85.40;;
14066;SDS011;7108;42.684;23.350;2023-03-01T10:51:45;292.17;;;82.45;;
14066;SDS011;7108;42.684;23.350;2023-03-01T10:57:02;260.10;;;84.32;;
14066;SDS011;7108;42.684;23.350;2023-03-01T10:59:37;238.77;;;81.57;;
14066;SDS011;7108;42.684;23.350;2023-03-01T11:04:59;290.42;;;87.68;;
14066;SDS011;7108;42.684;23.350;2023-03-01T11:07:24;279.33;;;87.47;;
14066;SDS011;7108;42.684;23.350;2023-03-01T11:09:53;287.42;;;89.18;;
14066;SDS011;7108;42.684;23.350;2023-03-01T11:12:19;271.93;;;86.13;;
14066;SDS011;7108;42.684;23.350;2023-03-01T11:15:04;301.52;;;85.50;;
14066;SDS011;7108;42.684;23.350;2023-03-01T11:17:30;204.05;;;75.72;;
14066;SDS011;7108;42.684;23.350;2023-03-01T11:22:25;248.38;;;80.53;;
14066;SDS011;7108;42.684;23.350;2023-03-01T11:24:53;248.52;;;94.57;;
14066;SDS011;7108;42.684;23.350;2023-03-01T11:27:35;241.05;;;80.03;;
14066;SDS011;7108;42.684;23.350;2023-03-01T11:30:06;207.50;;;77.10;;
14066;SDS011;7108;42.684;23.350;2023-03-01T11:35:47;224.77;;;73.00;;
14066;SDS011;7108;42.684;23.350;2023-03-01T11:38:22;229.38;;;82.85;;
14066;SDS011;7108;42.684;23.350;2023-03-01T11:40:52;234.93;;;82.55;;
14066;SDS011;7108;42.684;23.350;2023-03-01T11:43:33;232.52;;;79.55;;
14066;SDS011;7108;42.684;23.350;2023-03-01T11:51:41;248.43;;;80.38;;
14066;SDS011;7108;42.684;23.350;2023-03-01T12:14:29;204.38;;;79.65;;
14066;SDS011;7108;42.684;23.350;2023-03-01T12:25:48;205.68;;;77.53;;
14066;SDS011;7108;42.684;23.350;2023-03-01T12:28:33;225.35;;;77.05;;
14066;SDS011;7108;42.684;23.350;2023-03-01T12:50:02;204.57;;;74.43;;
14066;SDS011;7108;42.684;23.350;2023-03-01T12:52:52;203.48;;;75.82;;
14066;SDS011;7108;42.684;23.350;2023-03-01T12:55:34;224.65;;;75.93;;
14066;SDS011;7108;42.684;23.350;2023-03-01T13:11:59;200.13;;;71.43;;
14066;SDS011;7108;42.684;23.350;2023-03-01T13:16:53;243.70;;;78.97;;
14066;SDS011;7108;42.684;23.350;2023-03-01T13:19:23;222.18;;;74.10;;
14066;SDS011;7108;42.684;23.350;2023-03-01T13:21:51;232.13;;;75.85;;
14066;SDS011;7108;42.684;23.350;2023-03-01T13:24:36;226.48;;;75.63;;
14066;SDS011;7108;42.684;23.350;2023-03-01T13:29:48;201.20;;;74.22;;
14066;SDS011;7108;42.684;23.350;2023-03-01T13:32:24;238.07;;;78.82;;
14066;SDS011;7108;42.684;23.350;2023-03-01T13:37:45;232.02;;;74.40;;
14066;SDS011;7108;42.684;23.350;2023-03-01T13:42:51;229.75;;;73.40;;
14066;SDS011;7108;42.684;23.350;2023-03-01T13:50:37;211.23;;;70.55;;
14066;SDS011;7108;42.684;23.350;2023-03-01T13:53:14;199.18;;;71.65;;
14066;SDS011;7108;42.684;23.350;2023-03-01T13:55:47;220.07;;;74.47;;
14066;SDS011;7108;42.684;23.350;2023-03-01T13:58:26;230.10;;;76.47;;
14066;SDS011;7108;42.684;23.350;2023-03-01T14:00:57;216.75;;;79.30;;
14066;SDS011;7108;42.684;23.350;2023-03-01T14:03:28;203.43;;;79.05;;
14066;SDS011;7108;42.684;23.350;2023-03-01T14:05:59;206.93;;;74.50;;
14066;SDS011;7108;42.684;23.350;2023-03-01T14:08:26;220.77;;;76.55;;
14066;SDS011;7108;42.684;23.350;2023-03-01T14:13:54;207.85;;;77.18;;
14066;SDS011;7108;42.684;23.350;2023-03-01T14:19:54;234.13;;;77.45;;
14066;SDS011;7108;42.684;23.350;2023-03-01T14:22:23;210.02;;;74.45;;
14066;SDS011;7108;42.684;23.350;2023-03-01T14:24:55;216.45;;;77.07;;
14066;SDS011;7108;42.684;23.350;2023-03-01T14:27:28;223.32;;;82.22;;
14066;SDS011;7108;42.684;23.350;2023-03-01T14:30:03;202.15;;;75.70;;
14066;SDS011;7108;42.684;23.350;2023-03-01T14:32:37;213.35;;;78.55;;
14066;SDS011;7108;42.684;23.350;2023-03-01T14:35:03;207.57;;;73.00;;
14066;SDS011;7108;42.684;23.350;2023-03-01T14:37:43;208.30;;;69.70;;
14066;SDS011;7108;42.684;23.350;2023-03-01T14:40:19;193.23;;;71.43;;
14066;SDS011;7108;42.684;23.350;2023-03-01T14:42:49;204.45;;;72.10;;
14066;SDS011;7108;42.684;23.350;2023-03-01T14:45:16;202.63;;;72.10;;
14066;SDS011;7108;42.684;23.350;2023-03-01T14:47:43;208.95;;;71.88;;
14066;SDS011;7108;42.684;23.350;2023-03-01T14:50:15;201.38;;;71.03;;
14066;SDS011;7108;42.684;23.350;2023-03-01T14:52:44;212.27;;;72.38;;
14066;SDS011;7108;42.684;23.350;2023-03-01T14:55:17;206.77;;;70.25;;
14066;SDS011;7108;42.684;23.350;2023-03-01T14:57:50;204.30;;;72.53;;
14066;SDS011;7108;42.684;23.350;2023-03-01T15:00:37;206.32;;;72.60;;
14066;SDS011;7108;42.684;23.350;2023-03-01T15:03:11;201.75;;;72.18;;
14066;SDS011;7108;42.684;23.350;2023-03-01T15:05:44;202.07;;;74.13;;
14066;SDS011;7108;42.684;23.350;2023-03-01T15:08:16;192.20;;;70.32;;
14066;SDS011;7108;42.684;23.350;2023-03-01T15:13:28;196.32;;;70.82;;
14066;SDS011;7108;42.684;23.350;2023-03-01T15:19:06;195.40;;;69.20;;
14066;SDS011;7108;42.684;23.350;2023-03-01T15:21:41;198.00;;;71.63;;
14066;SDS011;7108;42.684;23.350;2023-03-01T15:26:55;203.98;;;72.45;;
14066;SDS011;7108;42.684;23.350;2023-03-01T15:29:23;191.88;;;69.60;;
14066;SDS011;7108;42.684;23.350;2023-03-01T15:31:57;215.60;;;74.63;;
14066;SDS011;7108;42.684;23.350;2023-03-01T15:34:32;209.90;;;71.45;;
14066;SDS011;7108;42.684;23.350;2023-03-01T15:37:00;197.55;;;71.28;;
14066;SDS011;7108;42.684;23.350;2023-03-01T15:42:08;199.80;;;74.35;;
14066;SDS011;7108;42.684;23.350;2023-03-01T15:45:06;198.32;;;73.05;;
14066;SDS011;7108;42.684;23.350;2023-03-01T15:47:33;203.10;;;73.20;;
14066;SDS011;7108;42.684;23.350;2023-03-01T15:50:03;212.55;;;75.03;;
14066;SDS011;7108;42.684;23.350;2023-03-01T15:52:29;186.23;;;70.93;;
14066;SDS011;7108;42.684;23.350;2023-03-01T15:55:06;192.75;;;71.07;;
14066;SDS011;7108;42.684;23.350;2023-03-01T15:57:40;193.80;;;72.25;;
14066;SDS011;7108;42.684;23.350;2023-03-01T16:00:08;191.90;;;71.47;;
14066;SDS011;7108;42.684;23.350;2023-03-01T16:02:39;188.90;;;71.03;;
14066;SDS011;7108;42.684;23.350;2023-03-01T16:05:06;201.27;;;73.57;;
14066;SDS011;7108;42.684;23.350;2023-03-01T16:07:42;194.75;;;72.10;;
14066;SDS011;7108;42.684;23.350;2023-03-01T16:10:10;196.60;;;71.60;;
14066;SDS011;7108;42.684;23.350;2023-03-01T16:12:36;211.40;;;75.93;;
14066;SDS011;7108;42.684;23.350;2023-03-01T16:15:01;194.67;;;72.57;;
14066;SDS011;7108;42.684;23.350;2023-03-01T16:17:29;200.05;;;74.22;;
14066;SDS011;7108;42.684;23.350;2023-03-01T16:20:01;198.77;;;74.40;;
14066;SDS011;7108;42.684;23.350;2023-03-01T16:22:27;210.13;;;72.80;;
14066;SDS011;7108;42.684;23.350;2023-03-01T16:24:53;213.23;;;73.32;;
14066;SDS011;7108;42.684;23.350;2023-03-01T16:27:18;190.80;;;69.90;;
14066;SDS011;7108;42.684;23.350;2023-03-01T16:29:45;252.73;;;78.00;;
14066;SDS011;7108;42.684;23.350;2023-03-01T16:32:10;271.80;;;80.27;;
14066;SDS011;7108;42.684;23.350;2023-03-01T16:34:36;256.03;;;79.37;;
14066;SDS011;7108;42.684;23.350;2023-03-01T16:37:02;249.27;;;79.90;;
14066;SDS011;7108;42.684;23.350;2023-03-01T16:39:29;248.27;;;78.47;;
14066;SDS011;7108;42.684;23.350;2023-03-01T16:41:55;241.93;;;77.93;;
14066;SDS011;7108;42.684;23.350;2023-03-01T16:44:20;245.80;;;79.10;;
14066;SDS011;7108;42.684;23.350;2023-03-01T16:46:49;270.10;;;81.43;;
14066;SDS011;7108;42.684;23.350;2023-03-01T16:49:15;269.08;;;80.07;;
14066;SDS011;7108;42.684;23.350;2023-03-01T16:51:40;272.33;;;79.87;;
14066;SDS011;7108;42.684;23.350;2023-03-01T16:54:23;240.85;;;74.53;;
14066;SDS011;7108;42.684;23.350;2023-03-01T16:56:49;260.52;;;78.53;;